createdAt,value
2022-08-17T00:00:43.100Z,27.30
2022-08-17T00:03:13.576Z,27.30
2022-08-17T00:05:44.096Z,27.30
2022-08-17T00:08:14.819Z,27.30
2022-08-17T00:10:43.846Z,27.30
2022-08-17T00:13:13.375Z,27.30
2022-08-17T00:15:41.876Z,27.40
2022-08-17T00:19:05.719Z,27.40
2022-08-17T00:20:59.101Z,27.30
2022-08-17T00:23:29.267Z,27.30
2022-08-17T00:25:57.677Z,27.20
2022-08-17T00:28:26.129Z,27.20
2022-08-17T00:30:59.786Z,27.20
2022-08-17T00:33:29.972Z,27.20
2022-08-17T00:35:59.439Z,27.10
2022-08-17T00:38:30.340Z,27.10
2022-08-17T00:41:00.197Z,27.20
2022-08-17T00:43:30.965Z,27.20
2022-08-17T00:45:59.862Z,27.10
2022-08-17T00:48:30.043Z,27.10
2022-08-17T00:51:01.102Z,27.10
2022-08-17T00:53:32.833Z,27.30
2022-08-17T00:56:03.265Z,27.40
2022-08-17T00:58:36.359Z,27.40
2022-08-17T01:01:05.704Z,27.30
2022-08-17T01:03:34.546Z,27.20
2022-08-17T01:06:04.505Z,27.10
2022-08-17T01:08:34.774Z,27.00
2022-08-17T01:11:05.372Z,27.00
2022-08-17T01:13:40.676Z,27.00
2022-08-17T01:16:12.941Z,26.90
2022-08-17T01:18:42.255Z,26.90
2022-08-17T01:21:15.232Z,27.00
2022-08-17T01:23:45.082Z,27.00
2022-08-17T01:26:13.768Z,27.00
2022-08-17T01:28:54.223Z,27.00
2022-08-17T01:31:25.264Z,26.90
2022-08-17T01:33:53.657Z,26.90
2022-08-17T01:36:22.585Z,27.00
2022-08-17T01:38:52.436Z,27.10
2022-08-17T01:41:23.169Z,27.20
2022-08-17T01:43:52.945Z,27.00
2022-08-17T01:46:23.372Z,27.00
2022-08-17T01:48:51.854Z,27.00
2022-08-17T01:51:21.210Z,26.90
2022-08-17T01:53:51.475Z,26.90
2022-08-17T01:56:24.538Z,26.90
2022-08-17T01:58:53.784Z,27.00
2022-08-17T02:01:23.438Z,26.90
2022-08-17T02:03:59.016Z,26.90
2022-08-17T02:06:29.049Z,26.80
2022-08-17T02:09:02.754Z,26.80
2022-08-17T02:11:34.367Z,26.80
2022-08-17T02:14:04.114Z,26.80
2022-08-17T02:16:36.675Z,26.90
2022-08-17T02:19:07.552Z,27.00
2022-08-17T02:21:36.448Z,27.00
2022-08-17T02:24:05.988Z,27.00
2022-08-17T02:26:35.887Z,26.90
2022-08-17T02:29:04.379Z,27.00
2022-08-17T02:31:33.183Z,27.00
2022-08-17T02:34:04.563Z,27.00
2022-08-17T02:36:34.067Z,27.00
2022-08-17T02:39:03.251Z,26.90
2022-08-17T02:41:31.716Z,26.90
2022-08-17T02:44:01.795Z,26.90
2022-08-17T02:46:30.571Z,27.00
2022-08-17T02:48:59.064Z,27.10
2022-08-17T02:51:27.560Z,27.20
2022-08-17T02:54:05.344Z,27.10
2022-08-17T02:56:44.499Z,27.00
2022-08-17T02:59:14.232Z,27.00
2022-08-17T03:01:42.689Z,27.00
2022-08-17T03:04:11.159Z,26.90
2022-08-17T03:06:39.626Z,26.80
2022-08-17T03:09:08.160Z,26.80
2022-08-17T03:11:36.653Z,26.80
2022-08-17T03:14:05.103Z,26.80
2022-08-17T03:16:34.957Z,27.00
2022-08-17T03:19:04.752Z,27.00
2022-08-17T03:21:33.212Z,27.00
2022-08-17T03:24:01.665Z,27.00
2022-08-17T03:26:37.283Z,26.90
2022-08-17T03:29:05.713Z,26.80
2022-08-17T03:31:37.092Z,26.80
2022-08-17T03:34:05.986Z,26.80
2022-08-17T03:36:36.010Z,26.80
2022-08-17T03:39:04.746Z,26.80
2022-08-17T03:41:33.202Z,26.80
2022-08-17T03:44:01.660Z,26.80
2022-08-17T03:46:47.226Z,26.70
2022-08-17T03:49:34.305Z,26.70
2022-08-17T03:52:20.291Z,26.70
2022-08-17T03:55:05.894Z,26.70
2022-08-17T03:57:34.290Z,26.80
2022-08-17T04:00:02.786Z,26.80
2022-08-17T04:02:33.595Z,26.80
2022-08-17T04:05:03.652Z,26.80
2022-08-17T04:07:32.465Z,26.90
2022-08-17T04:10:00.981Z,26.90
2022-08-17T04:12:31.104Z,26.90
2022-08-17T04:15:00.086Z,26.90
2022-08-17T04:17:30.071Z,26.90
2022-08-17T04:19:58.578Z,26.90
2022-08-17T04:22:30.773Z,26.90
2022-08-17T04:25:03.197Z,26.90
2022-08-17T04:27:31.872Z,27.00
2022-08-17T04:30:00.319Z,27.00
2022-08-17T04:33:04.099Z,27.00
2022-08-17T04:35:19.414Z,27.00
2022-08-17T04:37:49.354Z,27.10
2022-08-17T04:40:35.446Z,27.00
2022-08-17T04:43:05.688Z,27.10
2022-08-17T04:45:34.200Z,27.20
2022-08-17T04:48:02.992Z,27.20
2022-08-17T04:50:31.501Z,27.20
2022-08-17T04:53:01.588Z,27.40
2022-08-17T04:55:30.193Z,27.30
2022-08-17T04:57:58.841Z,27.10
2022-08-17T05:00:27.450Z,27.00
2022-08-17T05:02:56.544Z,26.90
2022-08-17T05:05:26.328Z,26.90
2022-08-17T05:07:54.959Z,26.90
2022-08-17T05:10:25.244Z,26.90
2022-08-17T05:12:58.892Z,27.00
2022-08-17T05:15:27.537Z,27.00
2022-08-17T05:17:56.487Z,27.00
2022-08-17T05:20:25.167Z,27.00
2022-08-17T05:22:54.498Z,27.10
2022-08-17T05:25:29.278Z,27.10
2022-08-17T05:28:02.177Z,27.10
2022-08-17T05:30:30.755Z,27.10
2022-08-17T05:33:00.257Z,27.10
2022-08-17T05:35:31.325Z,27.10
2022-08-17T05:38:00.884Z,27.10
2022-08-17T05:40:32.641Z,27.10
2022-08-17T05:43:09.194Z,27.10
2022-08-17T05:45:54.533Z,27.10
2022-08-17T05:48:36.800Z,27.20
2022-08-17T05:51:16.477Z,27.20
2022-08-17T05:53:47.240Z,27.20
2022-08-17T05:56:29.623Z,27.30
2022-08-17T05:59:03.857Z,27.30
2022-08-17T06:01:36.375Z,27.20
2022-08-17T06:04:08.288Z,27.30
2022-08-17T06:06:39.942Z,27.40
2022-08-17T06:09:26.547Z,27.40
2022-08-17T06:12:01.242Z,27.30
2022-08-17T06:14:37.400Z,27.40
2022-08-17T06:17:07.452Z,27.40
2022-08-17T06:19:39.637Z,27.40
2022-08-17T06:22:08.825Z,27.40
2022-08-17T06:24:38.478Z,27.40
2022-08-17T06:27:12.559Z,27.40
2022-08-17T06:29:44.605Z,27.40
2022-08-17T06:32:14.508Z,27.40
2022-08-17T06:34:44.815Z,27.40
2022-08-17T06:37:21.368Z,27.40
2022-08-17T06:39:55.625Z,27.40
2022-08-17T06:43:02.716Z,27.40
2022-08-17T06:45:21.124Z,27.50
2022-08-17T06:47:53.532Z,27.50
2022-08-17T06:50:25.071Z,27.50
2022-08-17T06:52:56.258Z,27.50
2022-08-17T06:55:27.370Z,27.50
2022-08-17T06:58:01.460Z,27.50
2022-08-17T07:00:40.779Z,27.50
2022-08-17T07:03:12.679Z,27.60
2022-08-17T07:05:43.897Z,27.60
2022-08-17T07:08:18.669Z,27.50
2022-08-17T07:10:48.810Z,27.50
2022-08-17T07:13:29.518Z,27.80
2022-08-17T07:16:03.334Z,28.10
2022-08-17T07:18:33.174Z,27.90
2022-08-17T07:21:08.423Z,27.70
2022-08-17T07:23:40.912Z,27.80
2022-08-17T07:26:10.369Z,28.00
2022-08-17T07:28:40.366Z,27.90
2022-08-17T07:31:09.490Z,28.00
2022-08-17T07:33:39.405Z,28.00
2022-08-17T07:36:29.159Z,28.00
2022-08-17T07:38:58.897Z,27.90
2022-08-17T07:41:27.728Z,27.80
2022-08-17T07:44:17.477Z,27.70
2022-08-17T07:47:07.012Z,27.80
2022-08-17T07:49:37.172Z,27.80
2022-08-17T07:52:47.509Z,28.00
2022-08-17T07:54:56.167Z,28.20
2022-08-17T07:57:32.696Z,28.50
2022-08-17T08:00:26.650Z,28.50
2022-08-17T08:03:02.987Z,28.60
2022-08-17T08:05:49.927Z,28.60
2022-08-17T08:08:29.244Z,28.80
2022-08-17T08:11:02.727Z,28.90
2022-08-17T08:13:32.407Z,28.90
2022-08-17T08:16:20.011Z,29.00
2022-08-17T08:18:55.382Z,28.90
2022-08-17T08:21:30.144Z,29.10
2022-08-17T08:24:00.841Z,28.90
2022-08-17T08:26:34.046Z,28.90
2022-08-17T08:29:06.417Z,28.90
2022-08-17T08:31:42.577Z,28.80
2022-08-17T08:34:53.227Z,28.80
2022-08-17T08:37:17.769Z,28.80
2022-08-17T08:39:53.359Z,28.70
2022-08-17T08:42:25.546Z,28.70
2022-08-17T08:45:01.387Z,28.70
2022-08-17T08:47:47.333Z,28.60
2022-08-17T08:50:30.283Z,28.60
2022-08-17T08:53:15.113Z,28.60
2022-08-17T08:55:49.450Z,28.50
2022-08-17T08:58:41.028Z,28.50
2022-08-17T09:01:17.145Z,28.70
2022-08-17T09:04:21.389Z,28.70
2022-08-17T09:07:01.905Z,28.60
2022-08-17T09:09:41.665Z,28.50
2022-08-17T09:12:13.795Z,28.60
2022-08-17T09:14:46.662Z,28.60
2022-08-17T09:17:18.394Z,28.70
2022-08-17T09:19:49.623Z,28.90
2022-08-17T09:22:25.063Z,28.70
2022-08-17T09:24:58.490Z,28.60
2022-08-17T09:27:30.043Z,28.80
2022-08-17T09:30:00.541Z,28.70
2022-08-17T09:32:32.640Z,28.50
2022-08-17T09:35:02.836Z,28.50
2022-08-17T09:37:36.828Z,28.40
2022-08-17T09:40:10.268Z,28.60
2022-08-17T09:42:43.847Z,28.70
2022-08-17T09:45:23.147Z,28.60
2022-08-17T09:47:55.249Z,28.50
2022-08-17T09:51:04.929Z,28.50
2022-08-17T09:53:17.269Z,28.40
2022-08-17T09:55:58.025Z,28.50
2022-08-17T09:58:31.923Z,28.60
2022-08-17T10:01:04.088Z,28.70
2022-08-17T10:03:49.018Z,28.80
2022-08-17T10:06:30.457Z,29.00
2022-08-17T10:09:06.560Z,29.00
2022-08-17T10:11:55.290Z,28.50
2022-08-17T10:14:37.640Z,28.40
2022-08-17T10:17:14.684Z,28.40
2022-08-17T10:19:47.893Z,28.70
2022-08-17T10:22:38.731Z,28.80
2022-08-17T10:25:49.056Z,28.80
2022-08-17T10:28:25.821Z,29.00
2022-08-17T10:31:23.221Z,28.90
2022-08-17T10:33:51.777Z,28.90
2022-08-17T10:36:23.989Z,29.00
2022-08-17T10:39:00.659Z,28.90
2022-08-17T10:41:35.729Z,29.00
2022-08-17T10:44:39.648Z,28.60
2022-08-17T10:47:07.504Z,28.80
2022-08-17T10:49:36.554Z,28.80
2022-08-17T10:52:08.223Z,28.70
2022-08-17T10:54:38.950Z,28.70
2022-08-17T10:57:22.222Z,28.70
2022-08-17T10:59:55.195Z,28.80
2022-08-17T11:02:26.225Z,28.80
2022-08-17T11:05:12.282Z,28.80
2022-08-17T11:07:59.906Z,29.00
2022-08-17T11:10:52.161Z,29.10
2022-08-17T11:13:26.707Z,29.10
2022-08-17T11:16:06.240Z,29.20
2022-08-17T11:18:55.003Z,29.00
2022-08-17T11:21:39.371Z,28.80
2022-08-17T11:24:23.447Z,28.50
2022-08-17T11:27:07.705Z,28.70
2022-08-17T11:29:52.547Z,28.80
2022-08-17T11:32:37.279Z,28.70
2022-08-17T11:35:12.034Z,28.60
2022-08-17T11:37:49.783Z,28.50
2022-08-17T11:40:35.750Z,28.70
2022-08-17T11:43:10.278Z,28.70
2022-08-17T11:45:51.360Z,28.60
2022-08-17T11:48:42.110Z,28.80
2022-08-17T11:51:30.171Z,28.90
2022-08-17T11:54:31.078Z,28.80
2022-08-17T11:56:53.060Z,28.80
2022-08-17T11:59:41.088Z,29.00
2022-08-17T12:02:31.432Z,29.10
2022-08-17T12:05:14.025Z,29.40
2022-08-17T12:07:44.136Z,29.50
2022-08-17T12:10:16.174Z,29.60
2022-08-17T12:12:46.314Z,29.30
2022-08-17T12:15:17.932Z,29.30
2022-08-17T12:17:53.042Z,29.30
2022-08-17T12:20:25.657Z,29.10
2022-08-17T12:23:01.297Z,29.20
2022-08-17T12:25:34.067Z,29.20
2022-08-17T12:28:06.458Z,29.10
2022-08-17T12:30:36.137Z,29.20
2022-08-17T12:33:04.817Z,29.10
2022-08-17T12:35:35.695Z,29.20
2022-08-17T12:38:06.574Z,29.00
2022-08-17T12:40:55.640Z,29.30
2022-08-17T12:43:30.469Z,29.20
2022-08-17T12:46:01.188Z,29.20
2022-08-17T12:48:58.915Z,29.40
2022-08-17T12:51:30.186Z,29.40
2022-08-17T12:53:58.748Z,29.20
2022-08-17T12:56:27.502Z,29.00
2022-08-17T12:58:56.558Z,29.30
2022-08-17T13:01:25.277Z,29.40
2022-08-17T13:03:54.898Z,29.50
2022-08-17T13:06:29.057Z,29.50
2022-08-17T13:09:09.070Z,29.40
2022-08-17T13:11:37.489Z,29.40
2022-08-17T13:14:10.101Z,29.40
2022-08-17T13:16:38.602Z,29.30
2022-08-17T13:19:08.440Z,29.10
2022-08-17T13:21:38.069Z,29.20
2022-08-17T13:24:16.788Z,29.40
2022-08-17T13:26:47.001Z,29.50
2022-08-17T13:29:24.074Z,29.40
2022-08-17T13:31:56.651Z,29.20
2022-08-17T13:34:44.553Z,29.10
2022-08-17T13:37:26.999Z,29.20
2022-08-17T13:39:58.324Z,29.20
2022-08-17T13:42:34.279Z,29.20
2022-08-17T13:45:53.978Z,29.30
2022-08-17T13:48:27.441Z,29.40
2022-08-17T13:51:14.250Z,29.20
2022-08-17T13:53:57.814Z,29.20
2022-08-17T13:56:38.427Z,29.10
2022-08-17T13:59:09.874Z,29.20
2022-08-17T14:01:39.523Z,28.80
2022-08-17T14:04:09.013Z,28.70
2022-08-17T14:06:49.342Z,28.90
2022-08-17T14:09:23.572Z,29.00
2022-08-17T14:11:54.123Z,29.20
2022-08-17T14:14:23.295Z,29.20
2022-08-17T14:16:52.015Z,29.40
2022-08-17T14:19:21.982Z,29.30
2022-08-17T14:21:51.002Z,29.10
2022-08-17T14:24:22.302Z,29.00
2022-08-17T14:26:52.435Z,29.10
2022-08-17T14:29:22.681Z,29.10
2022-08-17T14:31:54.415Z,29.00
2022-08-17T14:34:23.504Z,29.00
2022-08-17T14:36:52.193Z,28.90
2022-08-17T14:39:20.824Z,29.10
2022-08-17T14:41:49.511Z,29.00
2022-08-17T14:44:18.216Z,29.10
2022-08-17T14:46:48.103Z,29.20
2022-08-17T14:49:17.195Z,29.10
2022-08-17T14:51:45.601Z,29.20
2022-08-17T14:54:33.633Z,29.20
2022-08-17T14:57:22.431Z,29.10
2022-08-17T14:59:54.957Z,29.10
2022-08-17T15:02:30.115Z,29.00
2022-08-17T15:05:00.354Z,29.20
2022-08-17T15:07:30.568Z,28.90
2022-08-17T15:10:00.955Z,29.00
2022-08-17T15:12:33.110Z,29.20
2022-08-17T15:15:04.818Z,29.10
2022-08-17T15:17:54.740Z,28.80
2022-08-17T15:20:24.813Z,28.80
2022-08-17T15:22:55.295Z,29.00
2022-08-17T15:25:24.697Z,29.00
2022-08-17T15:27:54.126Z,29.00
2022-08-17T15:30:22.846Z,29.20
2022-08-17T15:32:54.719Z,29.10
2022-08-17T15:35:28.222Z,29.00
2022-08-17T15:38:06.142Z,29.00
2022-08-17T15:40:34.982Z,29.00
2022-08-17T15:43:06.207Z,28.80
2022-08-17T15:45:35.335Z,28.90
2022-08-17T15:48:05.362Z,29.00
2022-08-17T15:50:34.020Z,29.10
2022-08-17T15:53:03.524Z,29.20
2022-08-17T15:55:32.730Z,29.00
2022-08-17T15:58:01.329Z,28.80
2022-08-17T16:00:30.464Z,28.80
2022-08-17T16:03:44.543Z,28.80
2022-08-17T16:05:53.824Z,28.70
2022-08-17T16:08:23.323Z,28.80
2022-08-17T16:10:51.812Z,28.80
2022-08-17T16:13:20.546Z,28.70
2022-08-17T16:15:57.312Z,28.60
2022-08-17T16:18:31.043Z,28.60
2022-08-17T16:21:20.662Z,28.60
2022-08-17T16:23:49.448Z,28.60
2022-08-17T16:26:18.524Z,28.50
2022-08-17T16:28:47.059Z,28.60
2022-08-17T16:31:15.766Z,28.50
2022-08-17T16:34:15.953Z,28.40
2022-08-17T16:36:34.577Z,28.40
2022-08-17T16:39:03.091Z,28.50
2022-08-17T16:41:46.799Z,28.50
2022-08-17T16:44:15.927Z,28.50
2022-08-17T16:46:45.429Z,28.50
2022-08-17T16:49:24.452Z,28.40
2022-08-17T16:52:05.250Z,28.30
2022-08-17T16:54:35.584Z,28.50
2022-08-17T16:57:05.667Z,28.60
2022-08-17T16:59:40.896Z,28.60
2022-08-17T17:02:13.940Z,28.70
2022-08-17T17:04:46.877Z,28.60
2022-08-17T17:07:25.773Z,28.60
2022-08-17T17:09:55.538Z,28.50
2022-08-17T17:12:32.309Z,28.50
2022-08-17T17:15:14.315Z,28.60
2022-08-17T17:17:47.768Z,28.60
2022-08-17T17:20:21.773Z,28.60
2022-08-17T17:22:54.885Z,28.50
2022-08-17T17:25:26.561Z,28.50
2022-08-17T17:28:00.928Z,28.40
2022-08-17T17:30:33.207Z,28.40
2022-08-17T17:33:04.759Z,28.40
2022-08-17T17:35:35.518Z,28.40
2022-08-17T17:38:05.726Z,28.50
2022-08-17T17:40:36.693Z,28.30
2022-08-17T17:43:34.805Z,28.30
2022-08-17T17:45:57.838Z,28.40
2022-08-17T17:48:36.135Z,28.50
2022-08-17T17:51:10.521Z,28.50
2022-08-17T17:53:46.013Z,28.40
2022-08-17T17:56:43.169Z,28.30
2022-08-17T17:59:14.902Z,28.20
2022-08-17T18:01:47.807Z,28.20
2022-08-17T18:04:21.486Z,28.20
2022-08-17T18:07:03.599Z,28.20
2022-08-17T18:09:41.394Z,28.20
2022-08-17T18:12:13.318Z,28.00
2022-08-17T18:14:52.331Z,28.00
2022-08-17T18:17:20.817Z,28.10
2022-08-17T18:19:49.243Z,28.00
2022-08-17T18:22:20.063Z,28.10
2022-08-17T18:24:49.581Z,28.00
2022-08-17T18:27:25.597Z,28.00
2022-08-17T18:29:55.095Z,28.10
2022-08-17T18:32:28.362Z,28.00
2022-08-17T18:34:57.902Z,28.00
2022-08-17T18:37:46.967Z,27.90
2022-08-17T18:40:33.822Z,27.90
2022-08-17T18:43:09.697Z,27.90
2022-08-17T18:45:40.885Z,27.90
2022-08-17T18:48:19.096Z,27.90
2022-08-17T18:50:47.717Z,27.90
2022-08-17T18:53:26.415Z,27.80
2022-08-17T18:56:16.431Z,27.70
2022-08-17T18:58:51.489Z,27.80
2022-08-17T19:01:20.514Z,27.80
2022-08-17T19:03:49.634Z,27.70
2022-08-17T19:06:19.333Z,27.80
2022-08-17T19:08:47.787Z,27.90
2022-08-17T19:11:20.771Z,27.80
2022-08-17T19:13:54.215Z,27.80
2022-08-17T19:16:25.040Z,27.80
2022-08-17T19:18:58.028Z,27.80
2022-08-17T19:21:28.396Z,27.90
2022-08-17T19:24:00.217Z,27.80
2022-08-17T19:26:54.419Z,27.70
2022-08-17T19:29:23.414Z,27.70
2022-08-17T19:31:52.881Z,27.70
2022-08-17T19:34:30.089Z,27.70
2022-08-17T19:37:06.955Z,27.70
2022-08-17T19:39:38.801Z,27.70
2022-08-17T19:42:11.284Z,27.70
2022-08-17T19:44:52.799Z,27.70
2022-08-17T19:47:43.820Z,27.60
2022-08-17T19:50:18.904Z,27.70
2022-08-17T19:52:50.471Z,27.70
2022-08-17T19:55:22.285Z,27.70
2022-08-17T19:57:56.232Z,27.70
2022-08-17T20:00:26.589Z,27.80
2022-08-17T20:02:58.739Z,27.90
2022-08-17T20:05:29.229Z,27.80
2022-08-17T20:07:59.296Z,27.90
2022-08-17T20:10:31.748Z,27.90
2022-08-17T20:13:04.290Z,27.90
2022-08-17T20:15:35.318Z,28.00
2022-08-17T20:18:06.758Z,28.00
2022-08-17T20:20:37.377Z,28.00
2022-08-17T20:23:11.761Z,28.00
2022-08-17T20:25:45.159Z,28.00
2022-08-17T20:28:18.865Z,28.00
2022-08-17T20:30:48.892Z,28.00
2022-08-17T20:33:24.552Z,28.00
2022-08-17T20:36:04.725Z,28.00
2022-08-17T20:38:39.733Z,27.90
2022-08-17T20:41:12.306Z,27.90
2022-08-17T20:43:52.306Z,27.90
2022-08-17T20:46:39.521Z,27.90
2022-08-17T20:49:19.425Z,28.00
2022-08-17T20:52:00.633Z,28.00
2022-08-17T20:54:45.147Z,28.00
2022-08-17T20:57:32.081Z,28.00
2022-08-17T21:00:07.603Z,28.00
2022-08-17T21:02:37.242Z,28.10
2022-08-17T21:05:23.346Z,28.10
2022-08-17T21:07:58.455Z,28.20
2022-08-17T21:10:34.067Z,28.20
2022-08-17T21:13:23.062Z,28.20
2022-08-17T21:15:57.711Z,28.20
2022-08-17T21:18:31.264Z,28.20
2022-08-17T21:21:06.499Z,28.20
2022-08-17T21:23:42.518Z,28.20
2022-08-17T21:26:18.738Z,28.20
2022-08-17T21:28:59.929Z,28.20
2022-08-17T21:31:33.160Z,28.20
2022-08-17T21:34:26.884Z,28.20
2022-08-17T21:36:56.904Z,28.20
2022-08-17T21:39:33.182Z,28.20
2022-08-17T21:42:02.025Z,28.30
2022-08-17T21:44:33.003Z,28.30
2022-08-17T21:47:15.203Z,28.30
2022-08-17T21:49:43.666Z,28.20
2022-08-17T21:52:14.560Z,28.10
2022-08-17T21:54:49.402Z,28.10
2022-08-17T21:57:20.966Z,28.10
2022-08-17T21:59:52.927Z,28.20
2022-08-17T22:02:22.393Z,28.20
2022-08-17T22:05:02.257Z,28.10
2022-08-17T22:07:40.247Z,28.20
2022-08-17T22:10:30.853Z,28.10
2022-08-17T22:13:06.390Z,28.10
2022-08-17T22:15:46.989Z,28.20
2022-08-17T22:18:19.706Z,28.20
2022-08-17T22:20:50.884Z,28.20
2022-08-17T22:23:41.553Z,28.20
2022-08-17T22:26:13.413Z,28.20
2022-08-17T22:28:44.346Z,28.20
2022-08-17T22:31:14.501Z,28.20
2022-08-17T22:33:45.033Z,28.20
2022-08-17T22:36:24.592Z,28.20
2022-08-17T22:38:54.501Z,28.20
2022-08-17T22:41:35.922Z,28.20
2022-08-17T22:44:15.665Z,28.20
2022-08-17T22:46:50.691Z,28.20
2022-08-17T22:49:23.256Z,28.10
2022-08-17T22:51:59.953Z,28.10
2022-08-17T22:54:46.403Z,28.00
2022-08-17T22:57:34.437Z,28.00
2022-08-17T23:00:02.972Z,27.90
2022-08-17T23:02:32.252Z,27.90
2022-08-17T23:05:16.876Z,28.00
2022-08-17T23:07:46.591Z,28.00
2022-08-17T23:10:15.548Z,28.00
2022-08-17T23:12:46.207Z,28.00
2022-08-17T23:15:15.643Z,27.90
2022-08-17T23:17:49.528Z,27.80
2022-08-17T23:20:18.684Z,27.80
2022-08-17T23:22:52.145Z,27.70
2022-08-17T23:25:25.951Z,27.90
2022-08-17T23:27:56.027Z,27.80
2022-08-17T23:30:25.681Z,27.70
2022-08-17T23:32:54.504Z,27.70
2022-08-17T23:35:39.651Z,27.70
2022-08-17T23:38:10.243Z,27.70
2022-08-17T23:40:39.756Z,27.60
2022-08-17T23:43:23.343Z,27.70
2022-08-17T23:45:54.139Z,27.70
2022-08-17T23:48:36.247Z,27.70
2022-08-17T23:51:09.201Z,27.70
2022-08-17T23:53:38.369Z,27.80
2022-08-17T23:56:10.922Z,27.80
2022-08-17T23:58:43.171Z,27.90
